sensor_id;sensor_type;location;lat;lon;timestamp;P1;durP1;ratioP1;P2;durP2;ratioP2
68386;SDS011;55338;43.062;25.624;2022-08-04T00:01:49;7.60;;;3.00;;
68386;SDS011;55338;43.062;25.624;2022-08-04T00:04:27;8.32;;;2.78;;
68386;SDS011;55338;43.062;25.624;2022-08-04T00:10:28;4.60;;;3.28;;
68386;SDS011;55338;43.062;25.624;2022-08-04T00:12:56;5.63;;;2.83;;
68386;SDS011;55338;43.062;25.624;2022-08-04T00:15:24;5.93;;;3.22;;
68386;SDS011;55338;43.062;25.624;2022-08-04T00:17:55;4.57;;;2.90;;
68386;SDS011;55338;43.062;25.624;2022-08-04T00:20:28;6.25;;;3.00;;
68386;SDS011;55338;43.062;25.624;2022-08-04T00:22:57;5.47;;;2.85;;
68386;SDS011;55338;43.062;25.624;2022-08-04T00:25:25;5.13;;;2.70;;
68386;SDS011;55338;43.062;25.624;2022-08-04T00:27:51;5.50;;;2.80;;
68386;SDS011;55338;43.062;25.624;2022-08-04T00:30:17;9.43;;;2.95;;
68386;SDS011;55338;43.062;25.624;2022-08-04T00:32:43;7.07;;;3.42;;
68386;SDS011;55338;43.062;25.624;2022-08-04T00:35:12;6.45;;;3.08;;
68386;SDS011;55338;43.062;25.624;2022-08-04T00:37:39;5.27;;;3.23;;
68386;SDS011;55338;43.062;25.624;2022-08-04T00:40:33;6.43;;;2.90;;
68386;SDS011;55338;43.062;25.624;2022-08-04T00:43:31;4.55;;;2.90;;
68386;SDS011;55338;43.062;25.624;2022-08-04T00:54:00;5.88;;;3.40;;
68386;SDS011;55338;43.062;25.624;2022-08-04T01:05:03;7.80;;;3.70;;
68386;SDS011;55338;43.062;25.624;2022-08-04T01:07:44;5.72;;;3.88;;
68386;SDS011;55338;43.062;25.624;2022-08-04T01:10:22;8.25;;;3.45;;
68386;SDS011;55338;43.062;25.624;2022-08-04T01:13:02;4.88;;;3.38;;
68386;SDS011;55338;43.062;25.624;2022-08-04T01:18:59;11.00;;;3.60;;
68386;SDS011;55338;43.062;25.624;2022-08-04T01:27:25;8.00;;;3.67;;
68386;SDS011;55338;43.062;25.624;2022-08-04T01:30:03;6.45;;;3.33;;
68386;SDS011;55338;43.062;25.624;2022-08-04T01:32:37;7.10;;;3.80;;
68386;SDS011;55338;43.062;25.624;2022-08-04T01:35:23;6.50;;;3.30;;
68386;SDS011;55338;43.062;25.624;2022-08-04T01:40:18;6.63;;;3.70;;
68386;SDS011;55338;43.062;25.624;2022-08-04T01:42:47;7.35;;;3.70;;
68386;SDS011;55338;43.062;25.624;2022-08-04T01:45:16;10.63;;;4.18;;
68386;SDS011;55338;43.062;25.624;2022-08-04T01:47:47;7.05;;;3.70;;
68386;SDS011;55338;43.062;25.624;2022-08-04T01:50:15;5.87;;;3.40;;
68386;SDS011;55338;43.062;25.624;2022-08-04T01:52:42;5.20;;;3.58;;
68386;SDS011;55338;43.062;25.624;2022-08-04T01:55:09;6.65;;;3.38;;
68386;SDS011;55338;43.062;25.624;2022-08-04T01:57:43;6.60;;;3.45;;
68386;SDS011;55338;43.062;25.624;2022-08-04T02:00:16;5.75;;;3.58;;
68386;SDS011;55338;43.062;25.624;2022-08-04T02:02:44;5.33;;;3.37;;
68386;SDS011;55338;43.062;25.624;2022-08-04T02:05:10;7.78;;;3.72;;
68386;SDS011;55338;43.062;25.624;2022-08-04T02:13:26;9.30;;;3.90;;
68386;SDS011;55338;43.062;25.624;2022-08-04T02:16:01;11.53;;;4.43;;
68386;SDS011;55338;43.062;25.624;2022-08-04T02:21:03;11.88;;;4.20;;
68386;SDS011;55338;43.062;25.624;2022-08-04T02:23:39;12.48;;;4.15;;
68386;SDS011;55338;43.062;25.624;2022-08-04T02:26:10;11.63;;;4.20;;
68386;SDS011;55338;43.062;25.624;2022-08-04T02:31:38;23.38;;;5.85;;
68386;SDS011;55338;43.062;25.624;2022-08-04T02:36:44;7.32;;;4.10;;
68386;SDS011;55338;43.062;25.624;2022-08-04T02:39:12;12.43;;;4.63;;
68386;SDS011;55338;43.062;25.624;2022-08-04T02:41:45;9.57;;;4.23;;
68386;SDS011;55338;43.062;25.624;2022-08-04T02:44:12;10.10;;;4.88;;
68386;SDS011;55338;43.062;25.624;2022-08-04T02:46:44;15.55;;;4.82;;
68386;SDS011;55338;43.062;25.624;2022-08-04T02:49:12;10.43;;;5.30;;
68386;SDS011;55338;43.062;25.624;2022-08-04T02:51:41;19.70;;;5.70;;
68386;SDS011;55338;43.062;25.624;2022-08-04T02:54:09;8.10;;;4.63;;
68386;SDS011;55338;43.062;25.624;2022-08-04T02:56:35;9.77;;;4.68;;
68386;SDS011;55338;43.062;25.624;2022-08-04T02:59:07;10.55;;;5.22;;
68386;SDS011;55338;43.062;25.624;2022-08-04T03:01:34;9.63;;;4.68;;
68386;SDS011;55338;43.062;25.624;2022-08-04T03:04:26;9.10;;;4.63;;
68386;SDS011;55338;43.062;25.624;2022-08-04T03:10:10;7.35;;;4.80;;
68386;SDS011;55338;43.062;25.624;2022-08-04T03:16:09;10.40;;;4.93;;
68386;SDS011;55338;43.062;25.624;2022-08-04T03:42:13;9.93;;;4.32;;
68386;SDS011;55338;43.062;25.624;2022-08-04T03:50:56;10.38;;;4.78;;
68386;SDS011;55338;43.062;25.624;2022-08-04T03:54:08;7.10;;;4.30;;
68386;SDS011;55338;43.062;25.624;2022-08-04T04:24:33;13.23;;;6.55;;
68386;SDS011;55338;43.062;25.624;2022-08-04T04:27:36;12.90;;;6.20;;
68386;SDS011;55338;43.062;25.624;2022-08-04T04:30:36;13.33;;;6.00;;
68386;SDS011;55338;43.062;25.624;2022-08-04T04:47:08;30.40;;;16.02;;
68386;SDS011;55338;43.062;25.624;2022-08-04T04:50:04;47.22;;;22.60;;
68386;SDS011;55338;43.062;25.624;2022-08-04T04:55:20;49.97;;;27.27;;
68386;SDS011;55338;43.062;25.624;2022-08-04T04:57:51;50.27;;;25.53;;
68386;SDS011;55338;43.062;25.624;2022-08-04T05:00:22;41.10;;;22.35;;
68386;SDS011;55338;43.062;25.624;2022-08-04T05:14:26;46.25;;;27.48;;
68386;SDS011;55338;43.062;25.624;2022-08-04T05:17:03;24.00;;;15.18;;
68386;SDS011;55338;43.062;25.624;2022-08-04T05:22:31;16.92;;;10.77;;
68386;SDS011;55338;43.062;25.624;2022-08-04T05:25:06;21.13;;;13.23;;
68386;SDS011;55338;43.062;25.624;2022-08-04T05:27:44;30.25;;;20.52;;
68386;SDS011;55338;43.062;25.624;2022-08-04T05:30:14;36.38;;;25.38;;
68386;SDS011;55338;43.062;25.624;2022-08-04T05:32:45;40.25;;;25.77;;
68386;SDS011;55338;43.062;25.624;2022-08-04T05:35:21;47.15;;;27.20;;
68386;SDS011;55338;43.062;25.624;2022-08-04T05:38:11;27.87;;;17.53;;
68386;SDS011;55338;43.062;25.624;2022-08-04T05:40:41;23.27;;;16.85;;
68386;SDS011;55338;43.062;25.624;2022-08-04T05:43:08;24.30;;;17.15;;
68386;SDS011;55338;43.062;25.624;2022-08-04T05:45:36;26.70;;;16.35;;
68386;SDS011;55338;43.062;25.624;2022-08-04T05:48:02;24.17;;;15.98;;
68386;SDS011;55338;43.062;25.624;2022-08-04T05:50:31;26.57;;;16.27;;
68386;SDS011;55338;43.062;25.624;2022-08-04T05:52:58;23.20;;;16.35;;
68386;SDS011;55338;43.062;25.624;2022-08-04T05:55:26;24.52;;;13.18;;
68386;SDS011;55338;43.062;25.624;2022-08-04T05:57:54;25.33;;;13.57;;
68386;SDS011;55338;43.062;25.624;2022-08-04T06:00:24;18.10;;;12.23;;
68386;SDS011;55338;43.062;25.624;2022-08-04T06:02:52;23.57;;;12.20;;
68386;SDS011;55338;43.062;25.624;2022-08-04T06:05:19;19.40;;;12.23;;
68386;SDS011;55338;43.062;25.624;2022-08-04T06:07:47;17.40;;;11.77;;
68386;SDS011;55338;43.062;25.624;2022-08-04T06:10:13;18.63;;;11.50;;
68386;SDS011;55338;43.062;25.624;2022-08-04T06:12:43;17.00;;;11.45;;
68386;SDS011;55338;43.062;25.624;2022-08-04T06:15:25;24.73;;;11.97;;
68386;SDS011;55338;43.062;25.624;2022-08-04T06:17:53;16.95;;;11.40;;
68386;SDS011;55338;43.062;25.624;2022-08-04T06:20:27;19.77;;;11.10;;
68386;SDS011;55338;43.062;25.624;2022-08-04T06:23:00;19.08;;;11.65;;
68386;SDS011;55338;43.062;25.624;2022-08-04T06:25:31;20.52;;;13.13;;
68386;SDS011;55338;43.062;25.624;2022-08-04T06:27:58;24.00;;;13.53;;
68386;SDS011;55338;43.062;25.624;2022-08-04T06:30:29;19.80;;;11.30;;
68386;SDS011;55338;43.062;25.624;2022-08-04T06:32:56;13.55;;;9.52;;
68386;SDS011;55338;43.062;25.624;2022-08-04T06:35:27;31.33;;;9.32;;
68386;SDS011;55338;43.062;25.624;2022-08-04T06:37:54;12.52;;;8.25;;
68386;SDS011;55338;43.062;25.624;2022-08-04T06:40:22;9.93;;;6.70;;
68386;SDS011;55338;43.062;25.624;2022-08-04T06:42:50;10.35;;;7.22;;
68386;SDS011;55338;43.062;25.624;2022-08-04T06:45:16;9.45;;;7.65;;
68386;SDS011;55338;43.062;25.624;2022-08-04T06:47:44;8.05;;;6.00;;
68386;SDS011;55338;43.062;25.624;2022-08-04T06:50:11;8.80;;;6.60;;
68386;SDS011;55338;43.062;25.624;2022-08-04T06:52:38;9.67;;;6.03;;
68386;SDS011;55338;43.062;25.624;2022-08-04T06:55:05;9.70;;;6.68;;
68386;SDS011;55338;43.062;25.624;2022-08-04T06:57:32;19.20;;;6.28;;
68386;SDS011;55338;43.062;25.624;2022-08-04T07:00:06;9.88;;;6.50;;
68386;SDS011;55338;43.062;25.624;2022-08-04T07:02:41;13.75;;;6.65;;
68386;SDS011;55338;43.062;25.624;2022-08-04T07:05:12;10.77;;;5.97;;
68386;SDS011;55338;43.062;25.624;2022-08-04T07:07:39;9.18;;;5.65;;
68386;SDS011;55338;43.062;25.624;2022-08-04T07:10:06;7.32;;;5.22;;
68386;SDS011;55338;43.062;25.624;2022-08-04T07:12:32;6.05;;;4.18;;
68386;SDS011;55338;43.062;25.624;2022-08-04T07:14:59;5.15;;;3.75;;
68386;SDS011;55338;43.062;25.624;2022-08-04T07:17:25;6.27;;;3.53;;
68386;SDS011;55338;43.062;25.624;2022-08-04T07:19:55;6.75;;;3.75;;
68386;SDS011;55338;43.062;25.624;2022-08-04T07:22:21;7.97;;;3.70;;
68386;SDS011;55338;43.062;25.624;2022-08-04T07:24:52;7.25;;;3.45;;
68386;SDS011;55338;43.062;25.624;2022-08-04T07:27:20;5.28;;;4.00;;
68386;SDS011;55338;43.062;25.624;2022-08-04T07:29:46;7.03;;;3.17;;
68386;SDS011;55338;43.062;25.624;2022-08-04T07:32:12;6.47;;;3.08;;
68386;SDS011;55338;43.062;25.624;2022-08-04T07:34:40;6.30;;;3.17;;
68386;SDS011;55338;43.062;25.624;2022-08-04T07:37:07;7.82;;;2.90;;
68386;SDS011;55338;43.062;25.624;2022-08-04T07:39:33;4.75;;;3.10;;
68386;SDS011;55338;43.062;25.624;2022-08-04T07:42:01;6.33;;;3.00;;
68386;SDS011;55338;43.062;25.624;2022-08-04T07:44:32;5.22;;;2.70;;
68386;SDS011;55338;43.062;25.624;2022-08-04T07:46:59;6.78;;;2.90;;
68386;SDS011;55338;43.062;25.624;2022-08-04T07:49:26;5.13;;;2.88;;
68386;SDS011;55338;43.062;25.624;2022-08-04T07:51:53;6.55;;;3.42;;
68386;SDS011;55338;43.062;25.624;2022-08-04T07:54:20;3.70;;;3.03;;
68386;SDS011;55338;43.062;25.624;2022-08-04T07:56:46;4.43;;;3.13;;
68386;SDS011;55338;43.062;25.624;2022-08-04T07:59:19;5.60;;;3.63;;
68386;SDS011;55338;43.062;25.624;2022-08-04T08:01:45;3.50;;;2.67;;
68386;SDS011;55338;43.062;25.624;2022-08-04T08:04:12;8.13;;;2.90;;
68386;SDS011;55338;43.062;25.624;2022-08-04T08:06:40;4.30;;;2.90;;
68386;SDS011;55338;43.062;25.624;2022-08-04T08:09:24;4.68;;;3.58;;
68386;SDS011;55338;43.062;25.624;2022-08-04T08:11:51;3.65;;;3.17;;
68386;SDS011;55338;43.062;25.624;2022-08-04T08:14:18;4.90;;;3.85;;
68386;SDS011;55338;43.062;25.624;2022-08-04T08:16:45;6.53;;;3.22;;
68386;SDS011;55338;43.062;25.624;2022-08-04T08:19:11;4.47;;;3.10;;
68386;SDS011;55338;43.062;25.624;2022-08-04T08:21:38;4.00;;;2.90;;
68386;SDS011;55338;43.062;25.624;2022-08-04T08:24:04;5.50;;;3.22;;
68386;SDS011;55338;43.062;25.624;2022-08-04T08:26:30;5.78;;;3.53;;
68386;SDS011;55338;43.062;25.624;2022-08-04T08:28:56;5.57;;;3.50;;
68386;SDS011;55338;43.062;25.624;2022-08-04T08:31:22;7.13;;;3.37;;
68386;SDS011;55338;43.062;25.624;2022-08-04T08:33:48;4.00;;;2.97;;
68386;SDS011;55338;43.062;25.624;2022-08-04T08:36:18;4.70;;;3.03;;
68386;SDS011;55338;43.062;25.624;2022-08-04T08:39:10;6.35;;;3.45;;
68386;SDS011;55338;43.062;25.624;2022-08-04T08:48:04;3.83;;;3.20;;
68386;SDS011;55338;43.062;25.624;2022-08-04T09:07:41;3.85;;;3.20;;
68386;SDS011;55338;43.062;25.624;2022-08-04T09:11:12;6.30;;;3.50;;
68386;SDS011;55338;43.062;25.624;2022-08-04T09:13:15;5.18;;;2.90;;
68386;SDS011;55338;43.062;25.624;2022-08-04T09:30:22;4.72;;;3.67;;
68386;SDS011;55338;43.062;25.624;2022-08-04T09:33:22;3.75;;;3.35;;
68386;SDS011;55338;43.062;25.624;2022-08-04T09:35:57;3.85;;;3.05;;
68386;SDS011;55338;43.062;25.624;2022-08-04T09:43:48;4.30;;;3.25;;
68386;SDS011;55338;43.062;25.624;2022-08-04T09:46:43;4.32;;;3.30;;
68386;SDS011;55338;43.062;25.624;2022-08-04T09:49:35;7.47;;;3.40;;
68386;SDS011;55338;43.062;25.624;2022-08-04T09:52:30;4.17;;;3.23;;
68386;SDS011;55338;43.062;25.624;2022-08-04T10:00:59;5.50;;;3.47;;
68386;SDS011;55338;43.062;25.624;2022-08-04T10:03:26;9.35;;;3.70;;
68386;SDS011;55338;43.062;25.624;2022-08-04T10:14:09;5.40;;;3.60;;
68386;SDS011;55338;43.062;25.624;2022-08-04T10:17:02;4.50;;;3.95;;
68386;SDS011;55338;43.062;25.624;2022-08-04T10:19:37;4.73;;;3.17;;
68386;SDS011;55338;43.062;25.624;2022-08-04T10:30:11;4.43;;;3.50;;
68386;SDS011;55338;43.062;25.624;2022-08-04T10:35:30;7.82;;;5.18;;
68386;SDS011;55338;43.062;25.624;2022-08-04T10:40:32;5.25;;;4.13;;
68386;SDS011;55338;43.062;25.624;2022-08-04T10:46:13;6.43;;;4.53;;
68386;SDS011;55338;43.062;25.624;2022-08-04T10:54:42;4.10;;;3.60;;
68386;SDS011;55338;43.062;25.624;2022-08-04T10:57:08;4.15;;;3.75;;
68386;SDS011;55338;43.062;25.624;2022-08-04T10:59:40;3.80;;;3.40;;
68386;SDS011;55338;43.062;25.624;2022-08-04T11:05:00;4.25;;;3.70;;
68386;SDS011;55338;43.062;25.624;2022-08-04T11:07:40;4.57;;;4.18;;
68386;SDS011;55338;43.062;25.624;2022-08-04T11:10:08;6.68;;;5.95;;
68386;SDS011;55338;43.062;25.624;2022-08-04T11:12:34;5.63;;;3.43;;
68386;SDS011;55338;43.062;25.624;2022-08-04T11:17:52;5.13;;;3.40;;
68386;SDS011;55338;43.062;25.624;2022-08-04T11:23:08;23.92;;;4.82;;
68386;SDS011;55338;43.062;25.624;2022-08-04T11:28:49;4.97;;;3.80;;
68386;SDS011;55338;43.062;25.624;2022-08-04T11:31:27;3.92;;;3.25;;
68386;SDS011;55338;43.062;25.624;2022-08-04T11:34:08;4.10;;;3.35;;
68386;SDS011;55338;43.062;25.624;2022-08-04T11:39:35;5.67;;;3.03;;
68386;SDS011;55338;43.062;25.624;2022-08-04T11:42:20;5.63;;;3.55;;
68386;SDS011;55338;43.062;25.624;2022-08-04T11:44:47;6.93;;;3.38;;
68386;SDS011;55338;43.062;25.624;2022-08-04T11:49:57;14.40;;;3.83;;
68386;SDS011;55338;43.062;25.624;2022-08-04T11:52:31;3.77;;;3.33;;
68386;SDS011;55338;43.062;25.624;2022-08-04T11:54:58;4.78;;;3.35;;
68386;SDS011;55338;43.062;25.624;2022-08-04T11:57:29;4.47;;;3.30;;
68386;SDS011;55338;43.062;25.624;2022-08-04T11:59:55;5.47;;;3.00;;
68386;SDS011;55338;43.062;25.624;2022-08-04T12:05:02;5.20;;;3.20;;
68386;SDS011;55338;43.062;25.624;2022-08-04T12:18:58;3.70;;;3.13;;
68386;SDS011;55338;43.062;25.624;2022-08-04T12:21:28;5.13;;;3.45;;
68386;SDS011;55338;43.062;25.624;2022-08-04T12:24:13;4.70;;;3.08;;
68386;SDS011;55338;43.062;25.624;2022-08-04T12:26:44;5.45;;;3.22;;
68386;SDS011;55338;43.062;25.624;2022-08-04T12:29:21;5.07;;;2.70;;
68386;SDS011;55338;43.062;25.624;2022-08-04T12:31:55;5.70;;;3.33;;
68386;SDS011;55338;43.062;25.624;2022-08-04T12:34:31;4.90;;;3.25;;
68386;SDS011;55338;43.062;25.624;2022-08-04T12:37:14;3.60;;;2.97;;
68386;SDS011;55338;43.062;25.624;2022-08-04T12:39:56;4.18;;;3.20;;
68386;SDS011;55338;43.062;25.624;2022-08-04T12:42:54;6.32;;;3.53;;
68386;SDS011;55338;43.062;25.624;2022-08-04T12:45:24;6.37;;;3.77;;
68386;SDS011;55338;43.062;25.624;2022-08-04T12:47:51;4.50;;;3.47;;
68386;SDS011;55338;43.062;25.624;2022-08-04T12:50:18;4.30;;;3.00;;
68386;SDS011;55338;43.062;25.624;2022-08-04T12:52:48;4.45;;;3.67;;
68386;SDS011;55338;43.062;25.624;2022-08-04T12:55:17;6.13;;;3.40;;
68386;SDS011;55338;43.062;25.624;2022-08-04T12:57:46;3.60;;;2.70;;
68386;SDS011;55338;43.062;25.624;2022-08-04T13:00:34;5.30;;;3.63;;
68386;SDS011;55338;43.062;25.624;2022-08-04T13:03:04;5.70;;;2.78;;
68386;SDS011;55338;43.062;25.624;2022-08-04T13:05:32;3.65;;;3.25;;
68386;SDS011;55338;43.062;25.624;2022-08-04T13:08:00;4.00;;;3.60;;
68386;SDS011;55338;43.062;25.624;2022-08-04T13:10:29;4.20;;;3.70;;
68386;SDS011;55338;43.062;25.624;2022-08-04T13:13:01;5.03;;;2.88;;
68386;SDS011;55338;43.062;25.624;2022-08-04T13:15:27;3.65;;;2.90;;
68386;SDS011;55338;43.062;25.624;2022-08-04T13:17:59;4.38;;;3.80;;
68386;SDS011;55338;43.062;25.624;2022-08-04T13:20:32;3.67;;;3.38;;
68386;SDS011;55338;43.062;25.624;2022-08-04T13:25:32;4.43;;;3.58;;
68386;SDS011;55338;43.062;25.624;2022-08-04T13:27:59;7.38;;;3.38;;
68386;SDS011;55338;43.062;25.624;2022-08-04T13:30:26;3.95;;;3.30;;
68386;SDS011;55338;43.062;25.624;2022-08-04T13:32:57;3.63;;;3.33;;
68386;SDS011;55338;43.062;25.624;2022-08-04T13:35:26;5.33;;;3.57;;
68386;SDS011;55338;43.062;25.624;2022-08-04T13:37:54;5.80;;;2.90;;
68386;SDS011;55338;43.062;25.624;2022-08-04T13:40:22;4.43;;;2.80;;
68386;SDS011;55338;43.062;25.624;2022-08-04T13:42:50;3.50;;;3.05;;
68386;SDS011;55338;43.062;25.624;2022-08-04T13:45:20;4.55;;;3.33;;
68386;SDS011;55338;43.062;25.624;2022-08-04T13:47:48;4.80;;;3.60;;
68386;SDS011;55338;43.062;25.624;2022-08-04T13:50:17;3.63;;;2.53;;
68386;SDS011;55338;43.062;25.624;2022-08-04T13:52:47;4.80;;;3.45;;
68386;SDS011;55338;43.062;25.624;2022-08-04T13:55:27;4.38;;;3.35;;
68386;SDS011;55338;43.062;25.624;2022-08-04T14:00:40;3.93;;;3.20;;
68386;SDS011;55338;43.062;25.624;2022-08-04T14:03:07;3.92;;;3.53;;
68386;SDS011;55338;43.062;25.624;2022-08-04T14:05:33;4.68;;;3.92;;
68386;SDS011;55338;43.062;25.624;2022-08-04T14:08:04;4.47;;;3.33;;
68386;SDS011;55338;43.062;25.624;2022-08-04T14:10:33;3.80;;;3.13;;
68386;SDS011;55338;43.062;25.624;2022-08-04T14:12:59;3.75;;;3.35;;
68386;SDS011;55338;43.062;25.624;2022-08-04T14:15:33;6.15;;;3.72;;
68386;SDS011;55338;43.062;25.624;2022-08-04T14:18:17;5.15;;;3.65;;
68386;SDS011;55338;43.062;25.624;2022-08-04T14:21:09;4.35;;;3.80;;
68386;SDS011;55338;43.062;25.624;2022-08-04T14:26:18;5.15;;;3.30;;
68386;SDS011;55338;43.062;25.624;2022-08-04T14:28:53;4.20;;;3.28;;
68386;SDS011;55338;43.062;25.624;2022-08-04T14:31:24;5.07;;;3.25;;
68386;SDS011;55338;43.062;25.624;2022-08-04T14:33:51;3.85;;;3.22;;
68386;SDS011;55338;43.062;25.624;2022-08-04T14:36:18;5.77;;;3.40;;
68386;SDS011;55338;43.062;25.624;2022-08-04T14:38:55;6.20;;;3.15;;
68386;SDS011;55338;43.062;25.624;2022-08-04T14:43:51;3.70;;;3.10;;
68386;SDS011;55338;43.062;25.624;2022-08-04T14:46:23;3.88;;;2.85;;
68386;SDS011;55338;43.062;25.624;2022-08-04T14:49:01;10.40;;;2.90;;
68386;SDS011;55338;43.062;25.624;2022-08-04T14:51:35;6.05;;;3.30;;
68386;SDS011;55338;43.062;25.624;2022-08-04T14:54:04;5.53;;;2.80;;
68386;SDS011;55338;43.062;25.624;2022-08-04T14:56:30;4.75;;;2.70;;
68386;SDS011;55338;43.062;25.624;2022-08-04T14:58:57;6.13;;;3.10;;
68386;SDS011;55338;43.062;25.624;2022-08-04T15:01:25;5.03;;;2.60;;
68386;SDS011;55338;43.062;25.624;2022-08-04T15:03:51;4.65;;;2.78;;
68386;SDS011;55338;43.062;25.624;2022-08-04T15:06:20;4.30;;;3.10;;
68386;SDS011;55338;43.062;25.624;2022-08-04T15:08:48;3.40;;;2.70;;
68386;SDS011;55338;43.062;25.624;2022-08-04T15:11:15;3.88;;;2.83;;
68386;SDS011;55338;43.062;25.624;2022-08-04T15:13:41;4.10;;;3.47;;
68386;SDS011;55338;43.062;25.624;2022-08-04T15:16:09;3.80;;;3.40;;
68386;SDS011;55338;43.062;25.624;2022-08-04T15:18:35;6.32;;;3.35;;
68386;SDS011;55338;43.062;25.624;2022-08-04T15:21:01;5.50;;;3.28;;
68386;SDS011;55338;43.062;25.624;2022-08-04T15:23:28;4.33;;;2.90;;
68386;SDS011;55338;43.062;25.624;2022-08-04T15:25:54;4.72;;;3.15;;
68386;SDS011;55338;43.062;25.624;2022-08-04T15:28:24;5.43;;;2.55;;
68386;SDS011;55338;43.062;25.624;2022-08-04T15:30:53;3.70;;;2.90;;
68386;SDS011;55338;43.062;25.624;2022-08-04T15:33:19;4.45;;;2.90;;
68386;SDS011;55338;43.062;25.624;2022-08-04T15:35:53;4.07;;;2.90;;
68386;SDS011;55338;43.062;25.624;2022-08-04T15:38:37;3.72;;;2.80;;
68386;SDS011;55338;43.062;25.624;2022-08-04T15:41:08;4.70;;;3.05;;
68386;SDS011;55338;43.062;25.624;2022-08-04T15:43:45;4.93;;;2.67;;
68386;SDS011;55338;43.062;25.624;2022-08-04T15:49:19;3.70;;;2.67;;
68386;SDS011;55338;43.062;25.624;2022-08-04T15:51:46;3.72;;;3.13;;
68386;SDS011;55338;43.062;25.624;2022-08-04T15:54:22;4.43;;;2.80;;
68386;SDS011;55338;43.062;25.624;2022-08-04T15:56:49;7.07;;;3.23;;
68386;SDS011;55338;43.062;25.624;2022-08-04T15:59:15;6.97;;;3.15;;
68386;SDS011;55338;43.062;25.624;2022-08-04T16:01:41;3.72;;;2.78;;
68386;SDS011;55338;43.062;25.624;2022-08-04T16:04:21;6.38;;;2.88;;
68386;SDS011;55338;43.062;25.624;2022-08-04T16:06:48;3.77;;;2.30;;
68386;SDS011;55338;43.062;25.624;2022-08-04T16:09:24;4.03;;;2.67;;
68386;SDS011;55338;43.062;25.624;2022-08-04T16:11:50;5.72;;;2.70;;
68386;SDS011;55338;43.062;25.624;2022-08-04T16:14:21;4.88;;;2.90;;
68386;SDS011;55338;43.062;25.624;2022-08-04T16:16:55;3.47;;;2.65;;
68386;SDS011;55338;43.062;25.624;2022-08-04T16:22:35;4.97;;;2.60;;
68386;SDS011;55338;43.062;25.624;2022-08-04T16:25:05;3.67;;;2.75;;
68386;SDS011;55338;43.062;25.624;2022-08-04T16:27:36;5.15;;;2.95;;
68386;SDS011;55338;43.062;25.624;2022-08-04T16:30:05;4.97;;;2.67;;
68386;SDS011;55338;43.062;25.624;2022-08-04T16:32:40;4.90;;;2.70;;
68386;SDS011;55338;43.062;25.624;2022-08-04T16:38:10;4.13;;;2.63;;
68386;SDS011;55338;43.062;25.624;2022-08-04T16:40:38;3.47;;;2.67;;
68386;SDS011;55338;43.062;25.624;2022-08-04T16:43:09;9.63;;;2.65;;
68386;SDS011;55338;43.062;25.624;2022-08-04T16:45:44;5.77;;;2.73;;
68386;SDS011;55338;43.062;25.624;2022-08-04T16:48:24;4.10;;;2.40;;
68386;SDS011;55338;43.062;25.624;2022-08-04T16:51:02;4.88;;;2.65;;
68386;SDS011;55338;43.062;25.624;2022-08-04T16:53:48;4.43;;;2.92;;
68386;SDS011;55338;43.062;25.624;2022-08-04T16:56:15;4.32;;;2.47;;
68386;SDS011;55338;43.062;25.624;2022-08-04T16:58:43;4.47;;;2.70;;
68386;SDS011;55338;43.062;25.624;2022-08-04T17:01:12;4.15;;;2.50;;
68386;SDS011;55338;43.062;25.624;2022-08-04T17:03:47;4.60;;;3.03;;
68386;SDS011;55338;43.062;25.624;2022-08-04T17:06:15;5.93;;;2.90;;
68386;SDS011;55338;43.062;25.624;2022-08-04T17:08:45;6.97;;;3.00;;
68386;SDS011;55338;43.062;25.624;2022-08-04T17:11:13;13.17;;;3.13;;
68386;SDS011;55338;43.062;25.624;2022-08-04T17:13:44;7.55;;;2.38;;
68386;SDS011;55338;43.062;25.624;2022-08-04T17:16:15;12.02;;;2.72;;
68386;SDS011;55338;43.062;25.624;2022-08-04T17:18:46;11.18;;;3.20;;
68386;SDS011;55338;43.062;25.624;2022-08-04T17:21:15;5.88;;;2.55;;
68386;SDS011;55338;43.062;25.624;2022-08-04T17:23:49;3.80;;;2.50;;
68386;SDS011;55338;43.062;25.624;2022-08-04T17:26:23;3.92;;;2.20;;
68386;SDS011;55338;43.062;25.624;2022-08-04T17:28:52;10.35;;;3.35;;
68386;SDS011;55338;43.062;25.624;2022-08-04T17:31:19;10.73;;;3.17;;
68386;SDS011;55338;43.062;25.624;2022-08-04T17:33:50;5.88;;;2.55;;
68386;SDS011;55338;43.062;25.624;2022-08-04T17:36:21;5.50;;;2.63;;
68386;SDS011;55338;43.062;25.624;2022-08-04T17:38:50;6.20;;;2.63;;
68386;SDS011;55338;43.062;25.624;2022-08-04T17:41:21;6.22;;;3.47;;
68386;SDS011;55338;43.062;25.624;2022-08-04T17:46:23;7.95;;;2.72;;
68386;SDS011;55338;43.062;25.624;2022-08-04T17:51:56;8.10;;;2.50;;
68386;SDS011;55338;43.062;25.624;2022-08-04T17:56:52;10.23;;;3.05;;
68386;SDS011;55338;43.062;25.624;2022-08-04T17:59:25;17.27;;;4.73;;
68386;SDS011;55338;43.062;25.624;2022-08-04T18:01:57;6.30;;;3.00;;
68386;SDS011;55338;43.062;25.624;2022-08-04T18:07:08;6.72;;;2.90;;
68386;SDS011;55338;43.062;25.624;2022-08-04T18:09:39;9.88;;;2.78;;
68386;SDS011;55338;43.062;25.624;2022-08-04T18:12:23;18.63;;;3.73;;
68386;SDS011;55338;43.062;25.624;2022-08-04T18:14:55;9.02;;;3.08;;
68386;SDS011;55338;43.062;25.624;2022-08-04T18:17:43;5.53;;;2.80;;
68386;SDS011;55338;43.062;25.624;2022-08-04T18:20:15;5.65;;;2.97;;
68386;SDS011;55338;43.062;25.624;2022-08-04T18:22:46;7.05;;;2.63;;
68386;SDS011;55338;43.062;25.624;2022-08-04T18:25:16;11.27;;;3.27;;
68386;SDS011;55338;43.062;25.624;2022-08-04T18:27:46;9.43;;;3.20;;
68386;SDS011;55338;43.062;25.624;2022-08-04T18:30:18;6.63;;;2.80;;
68386;SDS011;55338;43.062;25.624;2022-08-04T18:32:44;7.03;;;2.70;;
68386;SDS011;55338;43.062;25.624;2022-08-04T18:35:11;4.78;;;2.90;;
68386;SDS011;55338;43.062;25.624;2022-08-04T18:37:37;49.20;;;6.33;;
68386;SDS011;55338;43.062;25.624;2022-08-04T18:40:04;7.97;;;3.17;;
68386;SDS011;55338;43.062;25.624;2022-08-04T18:42:31;6.40;;;2.70;;
68386;SDS011;55338;43.062;25.624;2022-08-04T18:44:58;4.60;;;2.72;;
68386;SDS011;55338;43.062;25.624;2022-08-04T18:47:23;6.37;;;3.40;;
68386;SDS011;55338;43.062;25.624;2022-08-04T18:49:50;9.23;;;3.10;;
68386;SDS011;55338;43.062;25.624;2022-08-04T18:52:16;6.82;;;3.00;;
68386;SDS011;55338;43.062;25.624;2022-08-04T18:54:42;4.10;;;2.80;;
68386;SDS011;55338;43.062;25.624;2022-08-04T18:57:08;10.70;;;3.72;;
68386;SDS011;55338;43.062;25.624;2022-08-04T18:59:34;12.70;;;3.42;;
68386;SDS011;55338;43.062;25.624;2022-08-04T19:02:00;9.23;;;3.47;;
68386;SDS011;55338;43.062;25.624;2022-08-04T19:04:25;5.28;;;3.15;;
68386;SDS011;55338;43.062;25.624;2022-08-04T19:06:51;6.83;;;3.00;;
68386;SDS011;55338;43.062;25.624;2022-08-04T19:09:17;5.18;;;2.97;;
68386;SDS011;55338;43.062;25.624;2022-08-04T19:11:43;7.60;;;3.30;;
68386;SDS011;55338;43.062;25.624;2022-08-04T19:14:09;8.03;;;3.07;;
68386;SDS011;55338;43.062;25.624;2022-08-04T19:16:35;5.82;;;3.15;;
68386;SDS011;55338;43.062;25.624;2022-08-04T19:19:02;6.53;;;3.20;;
68386;SDS011;55338;43.062;25.624;2022-08-04T19:21:29;6.43;;;3.33;;
68386;SDS011;55338;43.062;25.624;2022-08-04T19:23:55;6.35;;;3.15;;
68386;SDS011;55338;43.062;25.624;2022-08-04T19:26:21;5.35;;;3.10;;
68386;SDS011;55338;43.062;25.624;2022-08-04T19:28:49;5.45;;;3.08;;
68386;SDS011;55338;43.062;25.624;2022-08-04T19:31:15;6.35;;;3.58;;
68386;SDS011;55338;43.062;25.624;2022-08-04T19:33:41;4.60;;;2.80;;
68386;SDS011;55338;43.062;25.624;2022-08-04T19:36:08;11.80;;;3.38;;
68386;SDS011;55338;43.062;25.624;2022-08-04T19:38:34;6.28;;;3.00;;